sensor_id;sensor_type;location;lat;lon;timestamp;P1;durP1;ratioP1;P2;durP2;ratioP2
4057;SDS011;2044;48.692;9.020;2022-07-18T00:00:38;7.43;;;6.80;;
4057;SDS011;2044;48.692;9.020;2022-07-18T00:03:04;6.80;;;6.50;;
4057;SDS011;2044;48.692;9.020;2022-07-18T00:05:31;7.10;;;6.50;;
4057;SDS011;2044;48.692;9.020;2022-07-18T00:07:58;6.37;;;6.07;;
4057;SDS011;2044;48.692;9.020;2022-07-18T00:10:24;6.50;;;6.10;;
4057;SDS011;2044;48.692;9.020;2022-07-18T00:12:53;6.20;;;5.80;;
4057;SDS011;2044;48.692;9.020;2022-07-18T00:15:19;6.80;;;6.30;;
4057;SDS011;2044;48.692;9.020;2022-07-18T00:17:46;6.30;;;5.80;;
4057;SDS011;2044;48.692;9.020;2022-07-18T00:20:13;6.27;;;5.70;;
4057;SDS011;2044;48.692;9.020;2022-07-18T00:22:40;6.10;;;5.80;;
4057;SDS011;2044;48.692;9.020;2022-07-18T00:25:06;6.80;;;6.40;;
4057;SDS011;2044;48.692;9.020;2022-07-18T00:27:33;6.43;;;6.03;;
4057;SDS011;2044;48.692;9.020;2022-07-18T00:30:02;6.60;;;6.20;;
4057;SDS011;2044;48.692;9.020;2022-07-18T00:32:29;6.17;;;5.87;;
4057;SDS011;2044;48.692;9.020;2022-07-18T00:34:56;6.30;;;5.87;;
4057;SDS011;2044;48.692;9.020;2022-07-18T00:37:23;5.87;;;5.27;;
4057;SDS011;2044;48.692;9.020;2022-07-18T00:39:49;5.47;;;5.17;;
4057;SDS011;2044;48.692;9.020;2022-07-18T00:42:16;4.90;;;4.43;;
4057;SDS011;2044;48.692;9.020;2022-07-18T00:44:43;3.87;;;3.67;;
4057;SDS011;2044;48.692;9.020;2022-07-18T00:47:11;5.70;;;3.70;;
4057;SDS011;2044;48.692;9.020;2022-07-18T00:49:37;4.63;;;4.00;;
4057;SDS011;2044;48.692;9.020;2022-07-18T00:52:04;4.40;;;4.10;;
4057;SDS011;2044;48.692;9.020;2022-07-18T00:54:31;3.90;;;3.60;;
4057;SDS011;2044;48.692;9.020;2022-07-18T00:56:58;4.23;;;3.73;;
4057;SDS011;2044;48.692;9.020;2022-07-18T00:59:25;3.73;;;3.53;;
4057;SDS011;2044;48.692;9.020;2022-07-18T01:02:14;3.97;;;3.77;;
4057;SDS011;2044;48.692;9.020;2022-07-18T01:04:40;5.00;;;4.60;;
4057;SDS011;2044;48.692;9.020;2022-07-18T01:07:06;5.73;;;4.23;;
4057;SDS011;2044;48.692;9.020;2022-07-18T01:09:34;4.30;;;3.97;;
4057;SDS011;2044;48.692;9.020;2022-07-18T01:12:02;4.47;;;3.90;;
4057;SDS011;2044;48.692;9.020;2022-07-18T01:14:29;4.60;;;4.20;;
4057;SDS011;2044;48.692;9.020;2022-07-18T01:16:57;4.47;;;4.17;;
4057;SDS011;2044;48.692;9.020;2022-07-18T01:19:25;4.67;;;4.37;;
4057;SDS011;2044;48.692;9.020;2022-07-18T01:21:53;4.90;;;4.40;;
4057;SDS011;2044;48.692;9.020;2022-07-18T01:24:20;4.87;;;4.57;;
4057;SDS011;2044;48.692;9.020;2022-07-18T01:26:47;5.73;;;4.10;;
4057;SDS011;2044;48.692;9.020;2022-07-18T01:29:14;4.40;;;4.00;;
4057;SDS011;2044;48.692;9.020;2022-07-18T01:31:40;5.30;;;4.83;;
4057;SDS011;2044;48.692;9.020;2022-07-18T01:34:07;4.50;;;4.20;;
4057;SDS011;2044;48.692;9.020;2022-07-18T01:36:33;4.37;;;4.07;;
4057;SDS011;2044;48.692;9.020;2022-07-18T01:39:02;4.13;;;3.83;;
4057;SDS011;2044;48.692;9.020;2022-07-18T01:41:29;4.23;;;3.83;;
4057;SDS011;2044;48.692;9.020;2022-07-18T01:43:55;4.10;;;3.63;;
4057;SDS011;2044;48.692;9.020;2022-07-18T01:46:22;4.03;;;3.73;;
4057;SDS011;2044;48.692;9.020;2022-07-18T01:48:49;3.70;;;3.40;;
4057;SDS011;2044;48.692;9.020;2022-07-18T01:51:15;4.00;;;3.70;;
4057;SDS011;2044;48.692;9.020;2022-07-18T01:53:42;4.00;;;3.70;;
4057;SDS011;2044;48.692;9.020;2022-07-18T01:56:20;5.10;;;4.50;;
4057;SDS011;2044;48.692;9.020;2022-07-18T01:58:47;7.50;;;4.40;;
4057;SDS011;2044;48.692;9.020;2022-07-18T02:01:14;4.50;;;4.10;;
4057;SDS011;2044;48.692;9.020;2022-07-18T02:03:40;4.27;;;3.97;;
4057;SDS011;2044;48.692;9.020;2022-07-18T02:06:07;6.63;;;3.40;;
4057;SDS011;2044;48.692;9.020;2022-07-18T02:08:34;4.40;;;4.00;;
4057;SDS011;2044;48.692;9.020;2022-07-18T02:11:00;4.87;;;3.83;;
4057;SDS011;2044;48.692;9.020;2022-07-18T02:13:28;4.23;;;3.90;;
4057;SDS011;2044;48.692;9.020;2022-07-18T02:15:55;4.37;;;3.97;;
4057;SDS011;2044;48.692;9.020;2022-07-18T02:18:22;3.90;;;3.60;;
4057;SDS011;2044;48.692;9.020;2022-07-18T02:20:49;5.50;;;4.10;;
4057;SDS011;2044;48.692;9.020;2022-07-18T02:23:15;4.60;;;4.20;;
4057;SDS011;2044;48.692;9.020;2022-07-18T02:25:42;4.23;;;3.83;;
4057;SDS011;2044;48.692;9.020;2022-07-18T02:28:09;3.90;;;3.33;;
4057;SDS011;2044;48.692;9.020;2022-07-18T02:30:37;3.60;;;3.30;;
4057;SDS011;2044;48.692;9.020;2022-07-18T02:33:03;4.50;;;3.90;;
4057;SDS011;2044;48.692;9.020;2022-07-18T02:35:31;4.63;;;3.00;;
4057;SDS011;2044;48.692;9.020;2022-07-18T02:37:57;3.90;;;3.50;;
4057;SDS011;2044;48.692;9.020;2022-07-18T02:40:24;3.77;;;3.47;;
4057;SDS011;2044;48.692;9.020;2022-07-18T02:42:51;3.33;;;3.00;;
4057;SDS011;2044;48.692;9.020;2022-07-18T02:45:18;3.73;;;3.30;;
4057;SDS011;2044;48.692;9.020;2022-07-18T02:47:46;5.00;;;3.27;;
4057;SDS011;2044;48.692;9.020;2022-07-18T02:50:12;4.03;;;3.20;;
4057;SDS011;2044;48.692;9.020;2022-07-18T02:52:40;5.07;;;2.47;;
4057;SDS011;2044;48.692;9.020;2022-07-18T02:55:07;3.00;;;2.70;;
4057;SDS011;2044;48.692;9.020;2022-07-18T02:57:35;3.87;;;3.27;;
4057;SDS011;2044;48.692;9.020;2022-07-18T03:00:02;5.57;;;2.97;;
4057;SDS011;2044;48.692;9.020;2022-07-18T03:02:30;4.23;;;3.30;;
4057;SDS011;2044;48.692;9.020;2022-07-18T03:04:58;3.63;;;3.30;;
4057;SDS011;2044;48.692;9.020;2022-07-18T03:07:25;4.07;;;3.27;;
4057;SDS011;2044;48.692;9.020;2022-07-18T03:09:51;3.40;;;2.70;;
4057;SDS011;2044;48.692;9.020;2022-07-18T03:12:18;3.93;;;3.07;;
4057;SDS011;2044;48.692;9.020;2022-07-18T03:14:45;3.77;;;2.90;;
4057;SDS011;2044;48.692;9.020;2022-07-18T03:17:12;3.90;;;2.70;;
4057;SDS011;2044;48.692;9.020;2022-07-18T03:19:39;5.97;;;3.00;;
4057;SDS011;2044;48.692;9.020;2022-07-18T03:22:07;4.60;;;2.90;;
4057;SDS011;2044;48.692;9.020;2022-07-18T03:24:34;5.37;;;3.43;;
4057;SDS011;2044;48.692;9.020;2022-07-18T03:27:01;3.00;;;2.70;;
4057;SDS011;2044;48.692;9.020;2022-07-18T03:29:27;2.90;;;2.70;;
4057;SDS011;2044;48.692;9.020;2022-07-18T03:31:54;2.90;;;2.70;;
4057;SDS011;2044;48.692;9.020;2022-07-18T03:34:21;2.57;;;2.37;;
4057;SDS011;2044;48.692;9.020;2022-07-18T03:36:48;3.40;;;3.00;;
4057;SDS011;2044;48.692;9.020;2022-07-18T03:39:16;3.50;;;3.20;;
4057;SDS011;2044;48.692;9.020;2022-07-18T03:41:42;4.37;;;3.50;;
4057;SDS011;2044;48.692;9.020;2022-07-18T03:44:09;3.63;;;3.33;;
4057;SDS011;2044;48.692;9.020;2022-07-18T03:46:36;3.63;;;3.30;;
4057;SDS011;2044;48.692;9.020;2022-07-18T03:49:03;4.60;;;2.93;;
4057;SDS011;2044;48.692;9.020;2022-07-18T03:51:30;5.03;;;2.90;;
4057;SDS011;2044;48.692;9.020;2022-07-18T03:53:58;3.67;;;3.37;;
4057;SDS011;2044;48.692;9.020;2022-07-18T03:56:26;3.87;;;3.53;;
4057;SDS011;2044;48.692;9.020;2022-07-18T03:58:52;6.60;;;3.50;;
4057;SDS011;2044;48.692;9.020;2022-07-18T04:01:19;3.60;;;3.30;;
4057;SDS011;2044;48.692;9.020;2022-07-18T04:03:46;3.63;;;3.10;;
4057;SDS011;2044;48.692;9.020;2022-07-18T04:06:13;3.43;;;2.93;;
4057;SDS011;2044;48.692;9.020;2022-07-18T04:08:39;2.83;;;2.63;;
4057;SDS011;2044;48.692;9.020;2022-07-18T04:11:06;3.07;;;2.77;;
4057;SDS011;2044;48.692;9.020;2022-07-18T04:13:34;2.60;;;2.40;;
4057;SDS011;2044;48.692;9.020;2022-07-18T04:16:01;5.17;;;2.90;;
4057;SDS011;2044;48.692;9.020;2022-07-18T04:18:28;4.50;;;3.57;;
4057;SDS011;2044;48.692;9.020;2022-07-18T04:20:55;3.53;;;3.20;;
4057;SDS011;2044;48.692;9.020;2022-07-18T04:23:22;2.60;;;2.43;;
4057;SDS011;2044;48.692;9.020;2022-07-18T04:25:49;3.00;;;2.70;;
4057;SDS011;2044;48.692;9.020;2022-07-18T04:28:15;2.97;;;2.77;;
4057;SDS011;2044;48.692;9.020;2022-07-18T04:30:43;3.40;;;3.10;;
4057;SDS011;2044;48.692;9.020;2022-07-18T04:33:10;5.90;;;3.93;;
4057;SDS011;2044;48.692;9.020;2022-07-18T04:35:38;5.10;;;4.23;;
4057;SDS011;2044;48.692;9.020;2022-07-18T04:38:05;4.37;;;4.10;;
4057;SDS011;2044;48.692;9.020;2022-07-18T04:40:33;5.43;;;4.90;;
4057;SDS011;2044;48.692;9.020;2022-07-18T04:43:00;6.10;;;5.63;;
4057;SDS011;2044;48.692;9.020;2022-07-18T04:45:27;6.23;;;5.80;;
4057;SDS011;2044;48.692;9.020;2022-07-18T04:47:55;6.60;;;6.20;;
4057;SDS011;2044;48.692;9.020;2022-07-18T04:50:22;7.60;;;6.90;;
4057;SDS011;2044;48.692;9.020;2022-07-18T04:52:50;7.97;;;7.47;;
4057;SDS011;2044;48.692;9.020;2022-07-18T04:55:18;8.30;;;7.90;;
4057;SDS011;2044;48.692;9.020;2022-07-18T04:57:46;8.00;;;7.60;;
4057;SDS011;2044;48.692;9.020;2022-07-18T05:00:17;9.30;;;8.70;;
4057;SDS011;2044;48.692;9.020;2022-07-18T05:02:46;9.00;;;8.60;;
4057;SDS011;2044;48.692;9.020;2022-07-18T05:05:16;9.57;;;8.97;;
4057;SDS011;2044;48.692;9.020;2022-07-18T05:07:44;9.20;;;8.60;;
4057;SDS011;2044;48.692;9.020;2022-07-18T05:10:12;9.83;;;9.13;;
4057;SDS011;2044;48.692;9.020;2022-07-18T05:12:41;10.33;;;9.53;;
4057;SDS011;2044;48.692;9.020;2022-07-18T05:15:10;10.07;;;9.40;;
4057;SDS011;2044;48.692;9.020;2022-07-18T05:17:38;14.20;;;9.93;;
4057;SDS011;2044;48.692;9.020;2022-07-18T05:20:06;10.30;;;9.80;;
4057;SDS011;2044;48.692;9.020;2022-07-18T05:22:36;10.20;;;9.60;;
4057;SDS011;2044;48.692;9.020;2022-07-18T05:25:04;10.80;;;9.80;;
4057;SDS011;2044;48.692;9.020;2022-07-18T05:27:32;11.07;;;10.37;;
4057;SDS011;2044;48.692;9.020;2022-07-18T05:29:58;10.60;;;10.00;;
4057;SDS011;2044;48.692;9.020;2022-07-18T05:32:25;10.80;;;10.10;;
4057;SDS011;2044;48.692;9.020;2022-07-18T05:34:52;10.23;;;9.70;;
4057;SDS011;2044;48.692;9.020;2022-07-18T05:37:19;10.60;;;10.00;;
4057;SDS011;2044;48.692;9.020;2022-07-18T05:39:47;11.13;;;10.47;;
4057;SDS011;2044;48.692;9.020;2022-07-18T05:42:15;11.00;;;10.30;;
4057;SDS011;2044;48.692;9.020;2022-07-18T05:44:42;11.60;;;10.60;;
4057;SDS011;2044;48.692;9.020;2022-07-18T05:47:09;11.03;;;10.03;;
4057;SDS011;2044;48.692;9.020;2022-07-18T05:49:36;10.73;;;9.73;;
4057;SDS011;2044;48.692;9.020;2022-07-18T05:52:02;13.50;;;10.80;;
4057;SDS011;2044;48.692;9.020;2022-07-18T05:54:30;14.83;;;10.53;;
4057;SDS011;2044;48.692;9.020;2022-07-18T05:56:58;11.87;;;10.77;;
4057;SDS011;2044;48.692;9.020;2022-07-18T05:59:24;10.47;;;9.70;;
4057;SDS011;2044;48.692;9.020;2022-07-18T06:01:51;12.20;;;10.90;;
4057;SDS011;2044;48.692;9.020;2022-07-18T06:04:18;11.27;;;10.47;;
4057;SDS011;2044;48.692;9.020;2022-07-18T06:06:45;11.37;;;10.27;;
4057;SDS011;2044;48.692;9.020;2022-07-18T06:09:13;11.00;;;10.37;;
4057;SDS011;2044;48.692;9.020;2022-07-18T06:11:41;10.83;;;9.90;;
4057;SDS011;2044;48.692;9.020;2022-07-18T06:14:09;11.27;;;10.17;;
4057;SDS011;2044;48.692;9.020;2022-07-18T06:16:36;11.70;;;10.67;;
4057;SDS011;2044;48.692;9.020;2022-07-18T06:19:03;11.77;;;10.57;;
4057;SDS011;2044;48.692;9.020;2022-07-18T06:21:29;11.27;;;10.27;;
4057;SDS011;2044;48.692;9.020;2022-07-18T06:23:56;11.27;;;10.27;;
4057;SDS011;2044;48.692;9.020;2022-07-18T06:26:23;11.43;;;10.33;;
4057;SDS011;2044;48.692;9.020;2022-07-18T06:28:49;12.13;;;10.87;;
4057;SDS011;2044;48.692;9.020;2022-07-18T06:31:17;13.27;;;10.07;;
4057;SDS011;2044;48.692;9.020;2022-07-18T06:33:44;11.97;;;10.13;;
4057;SDS011;2044;48.692;9.020;2022-07-18T06:36:12;11.10;;;10.20;;
4057;SDS011;2044;48.692;9.020;2022-07-18T06:38:38;10.80;;;9.97;;
4057;SDS011;2044;48.692;9.020;2022-07-18T06:41:06;11.40;;;10.20;;
4057;SDS011;2044;48.692;9.020;2022-07-18T06:43:33;11.07;;;9.97;;
4057;SDS011;2044;48.692;9.020;2022-07-18T06:45:59;11.37;;;9.77;;
4057;SDS011;2044;48.692;9.020;2022-07-18T06:48:27;14.87;;;10.23;;
4057;SDS011;2044;48.692;9.020;2022-07-18T06:50:58;10.57;;;9.53;;
4057;SDS011;2044;48.692;9.020;2022-07-18T06:53:26;10.30;;;9.20;;
4057;SDS011;2044;48.692;9.020;2022-07-18T06:55:53;10.37;;;9.40;;
4057;SDS011;2044;48.692;9.020;2022-07-18T06:58:20;10.90;;;9.43;;
4057;SDS011;2044;48.692;9.020;2022-07-18T07:00:46;10.13;;;9.57;;
4057;SDS011;2044;48.692;9.020;2022-07-18T07:03:13;10.20;;;9.50;;
4057;SDS011;2044;48.692;9.020;2022-07-18T07:05:41;10.70;;;9.90;;
4057;SDS011;2044;48.692;9.020;2022-07-18T07:08:08;11.90;;;10.03;;
4057;SDS011;2044;48.692;9.020;2022-07-18T07:10:34;10.10;;;9.53;;
4057;SDS011;2044;48.692;9.020;2022-07-18T07:13:03;10.47;;;9.80;;
4057;SDS011;2044;48.692;9.020;2022-07-18T07:15:30;10.20;;;9.63;;
4057;SDS011;2044;48.692;9.020;2022-07-18T07:17:56;10.27;;;9.80;;
4057;SDS011;2044;48.692;9.020;2022-07-18T07:20:23;10.20;;;9.70;;
4057;SDS011;2044;48.692;9.020;2022-07-18T07:22:52;9.97;;;9.50;;
4057;SDS011;2044;48.692;9.020;2022-07-18T07:25:21;9.87;;;9.33;;
4057;SDS011;2044;48.692;9.020;2022-07-18T07:27:49;10.60;;;9.70;;
4057;SDS011;2044;48.692;9.020;2022-07-18T07:30:16;10.07;;;9.53;;
4057;SDS011;2044;48.692;9.020;2022-07-18T07:32:45;10.70;;;10.00;;
4057;SDS011;2044;48.692;9.020;2022-07-18T07:35:15;10.00;;;9.50;;
4057;SDS011;2044;48.692;9.020;2022-07-18T07:37:44;11.23;;;10.30;;
4057;SDS011;2044;48.692;9.020;2022-07-18T07:40:34;10.70;;;10.17;;
4057;SDS011;2044;48.692;9.020;2022-07-18T07:43:04;10.80;;;10.00;;
4057;SDS011;2044;48.692;9.020;2022-07-18T07:45:32;10.00;;;9.50;;
4057;SDS011;2044;48.692;9.020;2022-07-18T07:47:59;10.00;;;9.20;;
4057;SDS011;2044;48.692;9.020;2022-07-18T07:50:26;10.00;;;9.30;;
4057;SDS011;2044;48.692;9.020;2022-07-18T07:52:53;9.63;;;9.23;;
4057;SDS011;2044;48.692;9.020;2022-07-18T07:55:20;9.50;;;9.10;;
4057;SDS011;2044;48.692;9.020;2022-07-18T07:57:48;10.57;;;9.87;;
4057;SDS011;2044;48.692;9.020;2022-07-18T08:00:15;9.50;;;9.10;;
4057;SDS011;2044;48.692;9.020;2022-07-18T08:02:54;9.57;;;8.93;;
4057;SDS011;2044;48.692;9.020;2022-07-18T08:05:22;11.00;;;10.17;;
4057;SDS011;2044;48.692;9.020;2022-07-18T08:07:49;10.10;;;9.40;;
4057;SDS011;2044;48.692;9.020;2022-07-18T08:10:16;9.90;;;9.20;;
4057;SDS011;2044;48.692;9.020;2022-07-18T08:12:43;10.47;;;9.87;;
4057;SDS011;2044;48.692;9.020;2022-07-18T08:15:11;10.90;;;10.10;;
4057;SDS011;2044;48.692;9.020;2022-07-18T08:17:38;10.57;;;10.07;;
4057;SDS011;2044;48.692;9.020;2022-07-18T08:20:09;10.87;;;10.27;;
4057;SDS011;2044;48.692;9.020;2022-07-18T08:22:37;10.33;;;9.83;;
4057;SDS011;2044;48.692;9.020;2022-07-18T08:25:20;10.20;;;9.70;;
4057;SDS011;2044;48.692;9.020;2022-07-18T08:27:53;10.33;;;9.83;;
4057;SDS011;2044;48.692;9.020;2022-07-18T08:30:21;9.80;;;9.30;;
4057;SDS011;2044;48.692;9.020;2022-07-18T08:32:48;9.10;;;8.70;;
4057;SDS011;2044;48.692;9.020;2022-07-18T08:35:15;9.77;;;9.37;;
4057;SDS011;2044;48.692;9.020;2022-07-18T08:37:42;10.50;;;9.90;;
4057;SDS011;2044;48.692;9.020;2022-07-18T08:40:09;9.63;;;9.23;;
4057;SDS011;2044;48.692;9.020;2022-07-18T08:42:36;10.40;;;9.90;;
4057;SDS011;2044;48.692;9.020;2022-07-18T08:45:04;9.83;;;9.33;;
4057;SDS011;2044;48.692;9.020;2022-07-18T08:47:33;9.67;;;9.27;;
4057;SDS011;2044;48.692;9.020;2022-07-18T08:50:00;9.60;;;9.20;;
4057;SDS011;2044;48.692;9.020;2022-07-18T08:52:28;9.53;;;8.93;;
4057;SDS011;2044;48.692;9.020;2022-07-18T08:54:55;9.60;;;9.00;;
4057;SDS011;2044;48.692;9.020;2022-07-18T08:57:22;9.03;;;8.63;;
4057;SDS011;2044;48.692;9.020;2022-07-18T08:59:49;9.50;;;9.00;;
4057;SDS011;2044;48.692;9.020;2022-07-18T09:02:18;9.07;;;8.50;;
4057;SDS011;2044;48.692;9.020;2022-07-18T09:04:51;9.43;;;8.93;;
4057;SDS011;2044;48.692;9.020;2022-07-18T09:07:24;9.17;;;8.67;;
4057;SDS011;2044;48.692;9.020;2022-07-18T09:09:54;9.00;;;8.60;;
4057;SDS011;2044;48.692;9.020;2022-07-18T09:12:23;9.00;;;8.60;;
4057;SDS011;2044;48.692;9.020;2022-07-18T09:14:51;8.67;;;8.17;;
4057;SDS011;2044;48.692;9.020;2022-07-18T09:17:19;9.03;;;8.60;;
4057;SDS011;2044;48.692;9.020;2022-07-18T09:19:59;9.27;;;8.83;;
4057;SDS011;2044;48.692;9.020;2022-07-18T09:22:30;8.77;;;8.47;;
4057;SDS011;2044;48.692;9.020;2022-07-18T09:25:01;8.80;;;8.40;;
4057;SDS011;2044;48.692;9.020;2022-07-18T09:27:31;9.10;;;8.70;;
4057;SDS011;2044;48.692;9.020;2022-07-18T09:32:53;9.50;;;8.90;;
4057;SDS011;2044;48.692;9.020;2022-07-18T09:35:32;8.80;;;8.40;;
4057;SDS011;2044;48.692;9.020;2022-07-18T09:38:01;9.10;;;8.70;;
4057;SDS011;2044;48.692;9.020;2022-07-18T09:40:31;9.47;;;8.97;;
4057;SDS011;2044;48.692;9.020;2022-07-18T09:43:00;9.07;;;8.77;;
4057;SDS011;2044;48.692;9.020;2022-07-18T09:45:29;9.07;;;8.77;;
4057;SDS011;2044;48.692;9.020;2022-07-18T09:47:57;9.20;;;8.70;;
4057;SDS011;2044;48.692;9.020;2022-07-18T09:50:27;9.10;;;8.60;;
4057;SDS011;2044;48.692;9.020;2022-07-18T09:52:59;9.87;;;9.30;;
4057;SDS011;2044;48.692;9.020;2022-07-18T09:55:34;9.17;;;8.80;;
4057;SDS011;2044;48.692;9.020;2022-07-18T09:58:05;9.87;;;9.17;;
4057;SDS011;2044;48.692;9.020;2022-07-18T10:00:34;8.63;;;8.23;;
4057;SDS011;2044;48.692;9.020;2022-07-18T10:03:02;9.40;;;9.00;;
4057;SDS011;2044;48.692;9.020;2022-07-18T10:05:31;8.97;;;8.63;;
4057;SDS011;2044;48.692;9.020;2022-07-18T10:08:02;9.10;;;8.70;;
4057;SDS011;2044;48.692;9.020;2022-07-18T10:10:30;9.07;;;8.50;;
4057;SDS011;2044;48.692;9.020;2022-07-18T10:12:57;8.70;;;8.30;;
4057;SDS011;2044;48.692;9.020;2022-07-18T10:15:26;8.80;;;8.37;;
4057;SDS011;2044;48.692;9.020;2022-07-18T10:17:54;8.53;;;8.13;;
4057;SDS011;2044;48.692;9.020;2022-07-18T10:20:26;8.67;;;8.27;;
4057;SDS011;2044;48.692;9.020;2022-07-18T10:22:59;8.90;;;8.60;;
4057;SDS011;2044;48.692;9.020;2022-07-18T10:25:33;8.73;;;8.33;;
4057;SDS011;2044;48.692;9.020;2022-07-18T10:28:03;8.70;;;8.30;;
4057;SDS011;2044;48.692;9.020;2022-07-18T10:30:41;8.53;;;8.13;;
4057;SDS011;2044;48.692;9.020;2022-07-18T10:36:05;8.27;;;7.97;;
4057;SDS011;2044;48.692;9.020;2022-07-18T10:38:35;8.40;;;8.10;;
4057;SDS011;2044;48.692;9.020;2022-07-18T10:41:12;8.80;;;8.50;;
4057;SDS011;2044;48.692;9.020;2022-07-18T10:43:40;8.77;;;8.37;;
4057;SDS011;2044;48.692;9.020;2022-07-18T10:46:11;8.30;;;8.00;;
4057;SDS011;2044;48.692;9.020;2022-07-18T10:48:57;8.20;;;7.90;;
4057;SDS011;2044;48.692;9.020;2022-07-18T10:51:30;8.23;;;7.93;;
4057;SDS011;2044;48.692;9.020;2022-07-18T10:54:08;9.20;;;8.60;;
4057;SDS011;2044;48.692;9.020;2022-07-18T10:59:37;8.60;;;8.30;;
4057;SDS011;2044;48.692;9.020;2022-07-18T11:02:35;8.53;;;8.03;;
4057;SDS011;2044;48.692;9.020;2022-07-18T11:08:18;9.17;;;8.77;;
4057;SDS011;2044;48.692;9.020;2022-07-18T11:11:10;8.97;;;8.67;;
4057;SDS011;2044;48.692;9.020;2022-07-18T11:13:50;8.90;;;8.40;;
4057;SDS011;2044;48.692;9.020;2022-07-18T11:16:19;8.67;;;8.03;;
4057;SDS011;2044;48.692;9.020;2022-07-18T11:21:50;9.60;;;8.90;;
4057;SDS011;2044;48.692;9.020;2022-07-18T11:24:22;8.50;;;8.20;;
4057;SDS011;2044;48.692;9.020;2022-07-18T11:26:51;8.90;;;8.40;;
4057;SDS011;2044;48.692;9.020;2022-07-18T11:29:18;8.00;;;7.70;;
4057;SDS011;2044;48.692;9.020;2022-07-18T11:31:46;8.30;;;8.00;;
4057;SDS011;2044;48.692;9.020;2022-07-18T11:34:15;8.70;;;8.20;;
4057;SDS011;2044;48.692;9.020;2022-07-18T11:36:43;8.57;;;8.27;;
4057;SDS011;2044;48.692;9.020;2022-07-18T11:39:12;8.70;;;8.30;;
4057;SDS011;2044;48.692;9.020;2022-07-18T11:41:47;8.57;;;8.27;;
4057;SDS011;2044;48.692;9.020;2022-07-18T11:44:19;8.30;;;8.00;;
4057;SDS011;2044;48.692;9.020;2022-07-18T11:47:00;8.80;;;8.20;;
4057;SDS011;2044;48.692;9.020;2022-07-18T11:49:27;8.50;;;8.00;;
4057;SDS011;2044;48.692;9.020;2022-07-18T11:51:54;8.53;;;8.23;;
4057;SDS011;2044;48.692;9.020;2022-07-18T11:54:21;8.10;;;7.70;;
4057;SDS011;2044;48.692;9.020;2022-07-18T11:56:50;8.20;;;7.90;;
4057;SDS011;2044;48.692;9.020;2022-07-18T11:59:20;8.40;;;8.00;;
4057;SDS011;2044;48.692;9.020;2022-07-18T12:01:47;8.37;;;7.97;;
4057;SDS011;2044;48.692;9.020;2022-07-18T12:04:20;8.33;;;8.03;;
4057;SDS011;2044;48.692;9.020;2022-07-18T12:09:44;8.57;;;8.27;;
4057;SDS011;2044;48.692;9.020;2022-07-18T12:12:11;8.57;;;8.27;;
4057;SDS011;2044;48.692;9.020;2022-07-18T12:14:40;8.30;;;8.00;;
4057;SDS011;2044;48.692;9.020;2022-07-18T12:17:07;8.10;;;7.80;;
4057;SDS011;2044;48.692;9.020;2022-07-18T12:19:35;8.40;;;8.10;;
4057;SDS011;2044;48.692;9.020;2022-07-18T12:22:04;8.40;;;8.10;;
4057;SDS011;2044;48.692;9.020;2022-07-18T12:24:33;8.60;;;8.30;;
4057;SDS011;2044;48.692;9.020;2022-07-18T12:27:12;8.00;;;7.70;;
4057;SDS011;2044;48.692;9.020;2022-07-18T12:32:39;8.13;;;7.87;;
4057;SDS011;2044;48.692;9.020;2022-07-18T12:35:08;8.33;;;8.03;;
4057;SDS011;2044;48.692;9.020;2022-07-18T12:37:36;8.47;;;8.17;;
4057;SDS011;2044;48.692;9.020;2022-07-18T12:40:03;8.83;;;8.43;;
4057;SDS011;2044;48.692;9.020;2022-07-18T12:42:32;8.50;;;8.17;;
4057;SDS011;2044;48.692;9.020;2022-07-18T12:45:00;8.87;;;8.47;;
4057;SDS011;2044;48.692;9.020;2022-07-18T12:47:28;8.37;;;7.97;;
4057;SDS011;2044;48.692;9.020;2022-07-18T12:49:55;8.47;;;8.17;;
4057;SDS011;2044;48.692;9.020;2022-07-18T12:52:22;8.30;;;8.00;;
4057;SDS011;2044;48.692;9.020;2022-07-18T12:54:49;8.00;;;7.60;;
4057;SDS011;2044;48.692;9.020;2022-07-18T12:57:16;8.23;;;7.93;;
4057;SDS011;2044;48.692;9.020;2022-07-18T12:59:44;8.20;;;7.90;;
4057;SDS011;2044;48.692;9.020;2022-07-18T13:02:11;8.27;;;7.80;;
4057;SDS011;2044;48.692;9.020;2022-07-18T13:04:40;8.17;;;7.77;;
4057;SDS011;2044;48.692;9.020;2022-07-18T13:07:07;8.60;;;8.20;;
4057;SDS011;2044;48.692;9.020;2022-07-18T13:09:34;8.23;;;7.93;;
4057;SDS011;2044;48.692;9.020;2022-07-18T13:12:01;8.10;;;7.70;;
4057;SDS011;2044;48.692;9.020;2022-07-18T13:14:28;7.80;;;7.50;;
4057;SDS011;2044;48.692;9.020;2022-07-18T13:16:55;7.80;;;7.50;;
4057;SDS011;2044;48.692;9.020;2022-07-18T13:19:22;7.50;;;7.20;;
4057;SDS011;2044;48.692;9.020;2022-07-18T13:21:50;8.20;;;7.90;;
4057;SDS011;2044;48.692;9.020;2022-07-18T13:24:16;8.60;;;8.20;;
4057;SDS011;2044;48.692;9.020;2022-07-18T13:26:43;8.47;;;8.03;;
4057;SDS011;2044;48.692;9.020;2022-07-18T13:29:10;8.83;;;8.43;;
4057;SDS011;2044;48.692;9.020;2022-07-18T13:31:37;8.60;;;8.20;;
4057;SDS011;2044;48.692;9.020;2022-07-18T13:34:03;8.87;;;8.37;;
4057;SDS011;2044;48.692;9.020;2022-07-18T13:36:30;8.50;;;8.20;;
4057;SDS011;2044;48.692;9.020;2022-07-18T13:38:59;8.47;;;8.07;;
4057;SDS011;2044;48.692;9.020;2022-07-18T13:41:27;7.70;;;7.40;;
4057;SDS011;2044;48.692;9.020;2022-07-18T13:43:54;8.90;;;8.50;;
4057;SDS011;2044;48.692;9.020;2022-07-18T13:46:21;8.37;;;7.97;;
4057;SDS011;2044;48.692;9.020;2022-07-18T13:48:48;8.10;;;7.80;;
4057;SDS011;2044;48.692;9.020;2022-07-18T13:51:15;8.57;;;8.07;;
4057;SDS011;2044;48.692;9.020;2022-07-18T13:53:42;7.97;;;7.57;;
4057;SDS011;2044;48.692;9.020;2022-07-18T13:56:11;8.50;;;7.93;;
4057;SDS011;2044;48.692;9.020;2022-07-18T13:58:38;8.50;;;8.10;;
4057;SDS011;2044;48.692;9.020;2022-07-18T14:01:05;8.60;;;8.10;;
4057;SDS011;2044;48.692;9.020;2022-07-18T14:03:32;8.43;;;8.13;;
4057;SDS011;2044;48.692;9.020;2022-07-18T14:05:59;8.20;;;7.90;;
4057;SDS011;2044;48.692;9.020;2022-07-18T14:08:26;8.20;;;7.80;;
4057;SDS011;2044;48.692;9.020;2022-07-18T14:10:53;7.73;;;7.43;;
4057;SDS011;2044;48.692;9.020;2022-07-18T14:13:21;7.17;;;6.87;;
4057;SDS011;2044;48.692;9.020;2022-07-18T14:15:47;7.30;;;7.00;;
4057;SDS011;2044;48.692;9.020;2022-07-18T14:18:14;7.40;;;7.10;;
4057;SDS011;2044;48.692;9.020;2022-07-18T14:20:41;7.77;;;7.37;;
4057;SDS011;2044;48.692;9.020;2022-07-18T14:23:08;7.83;;;7.30;;
4057;SDS011;2044;48.692;9.020;2022-07-18T14:25:35;8.57;;;7.80;;
4057;SDS011;2044;48.692;9.020;2022-07-18T14:28:01;39.70;;;10.90;;
4057;SDS011;2044;48.692;9.020;2022-07-18T14:30:30;7.97;;;7.33;;
4057;SDS011;2044;48.692;9.020;2022-07-18T14:32:56;7.90;;;7.50;;
4057;SDS011;2044;48.692;9.020;2022-07-18T14:35:23;7.80;;;7.40;;
4057;SDS011;2044;48.692;9.020;2022-07-18T14:37:50;7.83;;;7.53;;
4057;SDS011;2044;48.692;9.020;2022-07-18T14:40:17;8.30;;;8.00;;
4057;SDS011;2044;48.692;9.020;2022-07-18T14:42:43;8.13;;;7.83;;
4057;SDS011;2044;48.692;9.020;2022-07-18T14:45:10;8.13;;;7.70;;
4057;SDS011;2044;48.692;9.020;2022-07-18T14:47:38;9.30;;;8.70;;
4057;SDS011;2044;48.692;9.020;2022-07-18T14:50:06;8.90;;;8.43;;
4057;SDS011;2044;48.692;9.020;2022-07-18T14:52:35;9.10;;;8.60;;
4057;SDS011;2044;48.692;9.020;2022-07-18T14:55:02;8.30;;;7.90;;
4057;SDS011;2044;48.692;9.020;2022-07-18T14:57:29;8.20;;;7.60;;
4057;SDS011;2044;48.692;9.020;2022-07-18T14:59:56;8.33;;;7.93;;
4057;SDS011;2044;48.692;9.020;2022-07-18T15:02:23;7.70;;;7.40;;
4057;SDS011;2044;48.692;9.020;2022-07-18T15:04:51;8.50;;;8.10;;
4057;SDS011;2044;48.692;9.020;2022-07-18T15:07:17;8.00;;;7.50;;
4057;SDS011;2044;48.692;9.020;2022-07-18T15:09:44;8.00;;;7.60;;
4057;SDS011;2044;48.692;9.020;2022-07-18T15:12:11;8.47;;;7.80;;
4057;SDS011;2044;48.692;9.020;2022-07-18T15:14:37;7.40;;;7.10;;
4057;SDS011;2044;48.692;9.020;2022-07-18T15:17:04;8.20;;;7.70;;
4057;SDS011;2044;48.692;9.020;2022-07-18T15:19:31;8.70;;;8.30;;
4057;SDS011;2044;48.692;9.020;2022-07-18T15:21:59;7.77;;;7.47;;
4057;SDS011;2044;48.692;9.020;2022-07-18T15:24:26;8.67;;;8.30;;
4057;SDS011;2044;48.692;9.020;2022-07-18T15:26:52;8.10;;;7.70;;
4057;SDS011;2044;48.692;9.020;2022-07-18T15:29:19;7.60;;;7.20;;
4057;SDS011;2044;48.692;9.020;2022-07-18T15:31:46;7.03;;;6.73;;
4057;SDS011;2044;48.692;9.020;2022-07-18T15:34:12;7.97;;;7.57;;
4057;SDS011;2044;48.692;9.020;2022-07-18T15:36:39;8.20;;;7.70;;